VIR385E VRMM-EGLL
Flight info
| Callsign | VIR385E |
|---|---|
| Flight time | N/A |
| Altitude | 36000 |
| Route | ELBET1A ELBET L894 KITAL P570 GOLNI N569 UMILA L883 ALNUN/N0498F380 L883 SITOL DCT PUSON L883 KITUB Y511 PMA Z712 WEJ L677 CVO/N0496F400 L617 NOZ L551 ANTAR DCT RIPLI UN137 SKP DCT KOGIS DCT BITLA DCT BONZI DCT RETRA DCT INTIT DCT VELIT DCT ROTAR DCT ROKIB DCT RESIA DCT ELMUR DCT RIPUS DCT DITON DCT HOC DCT LUL DCT RLP DCT ROTSI DCT KOTUN DCT NINAL DCT ABNUR DCT DIMAL DCT ALESO |
| Aircraft | B789/H-SDE1E2E3FGHIJ2J3J4J5M1RWXY/LB1D1 |
Departure
| Time | 2026-04-28 11:51 |
|---|---|
| Airport | Velana International Airport (VRMM) |
Arrival
| Time | N/A |
|---|---|
| Airport | London Heathrow Airport (EGLL) |
| Time | Latitude | Longitude | Altitude | Speed | Heading |
|---|---|---|---|---|---|
| 2026-04-28 11:28 | 4.18305 | 73.52763 | 22 ft | 0 kts | 270° |
| 2026-04-28 11:42 | 4.18305 | 73.52769 | 27 ft | 4 kts | 268° |
| 2026-04-28 11:42 | 4.18307 | 73.52796 | 25 ft | 4 kts | 260° |
| 2026-04-28 11:43 | 4.18313 | 73.52822 | 27 ft | 4 kts | 248° |
| 2026-04-28 11:43 | 4.18326 | 73.52845 | 27 ft | 4 kts | 223° |
| 2026-04-28 11:43 | 4.18345 | 73.52856 | 27 ft | 1 kts | 180° |
| 2026-04-28 11:43 | 4.18350 | 73.52856 | 27 ft | 0 kts | 180° |
| 2026-04-28 11:47 | 4.18347 | 73.52856 | 27 ft | 1 kts | 180° |
| 2026-04-28 11:47 | 4.18334 | 73.52856 | 27 ft | 2 kts | 180° |
| 2026-04-28 11:47 | 4.18313 | 73.52855 | 26 ft | 4 kts | 180° |
| 2026-04-28 11:47 | 4.18283 | 73.52855 | 22 ft | 5 kts | 180° |
| 2026-04-28 11:48 | 4.18244 | 73.52855 | 22 ft | 6 kts | 180° |
| 2026-04-28 11:48 | 4.18197 | 73.52854 | 22 ft | 7 kts | 181° |
| 2026-04-28 11:48 | 4.18142 | 73.52854 | 26 ft | 6 kts | 176° |
| 2026-04-28 11:48 | 4.18120 | 73.52876 | 22 ft | 4 kts | 115° |
| 2026-04-28 11:49 | 4.18124 | 73.52911 | 26 ft | 6 kts | 67° |
| 2026-04-28 11:49 | 4.18165 | 73.52937 | 25 ft | 9 kts | 27° |
| 2026-04-28 11:49 | 4.18194 | 73.52992 | 22 ft | 10 kts | 81° |
| 2026-04-28 11:49 | 4.18205 | 73.53072 | 18 ft | 9 kts | 82° |
| 2026-04-28 11:50 | 4.18239 | 73.53102 | 19 ft | 6 kts | 13° |
| 2026-04-28 11:50 | 4.18289 | 73.53103 | 19 ft | 12 kts | 360° |
| 2026-04-28 11:50 | 4.18508 | 73.53103 | 26 ft | 61 kts | 0° |
| 2026-04-28 11:50 | 4.19166 | 73.53103 | 26 ft | 127 kts | 0° |
| 2026-04-28 11:51 | 4.20251 | 73.53099 | 28 ft | 182 kts | 359° |
| 2026-04-28 11:51 | 4.21559 | 73.53110 | 666 ft | 189 kts | 358° |
| 2026-04-28 11:51 | 4.22940 | 73.53116 | 1430 ft | 206 kts | 359° |
| 2026-04-28 11:51 | 4.24371 | 73.53112 | 2376 ft | 205 kts | 358° |
| 2026-04-28 11:52 | 4.25805 | 73.53104 | 3228 ft | 206 kts | 357° |
| 2026-04-28 11:52 | 4.27253 | 73.53090 | 4059 ft | 211 kts | 358° |
| 2026-04-28 11:52 | 4.28736 | 73.53087 | 4703 ft | 224 kts | 359° |
| 2026-04-28 11:52 | 4.30418 | 73.53089 | 5088 ft | 253 kts | 359° |
| 2026-04-28 11:53 | 4.32254 | 73.53090 | 5673 ft | 273 kts | 359° |
| 2026-04-28 11:53 | 4.34147 | 73.53090 | 6776 ft | 274 kts | 0° |
| 2026-04-28 11:53 | 4.36077 | 73.53088 | 7682 ft | 279 kts | 0° |
| 2026-04-28 11:53 | 4.38033 | 73.53086 | 8647 ft | 284 kts | 1° |
| 2026-04-28 11:54 | 4.40025 | 73.53085 | 9553 ft | 290 kts | 1° |
| 2026-04-28 11:54 | 4.42039 | 73.52805 | 10371 ft | 297 kts | 338° |
| 2026-04-28 11:54 | 4.43803 | 73.51714 | 11209 ft | 303 kts | 320° |
| 2026-04-28 11:54 | 4.45424 | 73.50313 | 11907 ft | 317 kts | 320° |
| 2026-04-28 11:55 | 4.47148 | 73.48792 | 12186 ft | 344 kts | 320° |
| 2026-04-28 11:55 | 4.49020 | 73.47156 | 12425 ft | 370 kts | 320° |
| 2026-04-28 11:55 | 4.51034 | 73.45418 | 12649 ft | 393 kts | 320° |
| 2026-04-28 11:55 | 4.53115 | 73.43617 | 13514 ft | 396 kts | 320° |
| 2026-04-28 11:56 | 4.55212 | 73.41795 | 14219 ft | 402 kts | 320° |
| 2026-04-28 11:56 | 4.57339 | 73.39947 | 14993 ft | 406 kts | 320° |
| 2026-04-28 11:56 | 4.59494 | 73.38078 | 15692 ft | 412 kts | 320° |
| 2026-04-28 11:56 | 4.61674 | 73.36187 | 16413 ft | 417 kts | 320° |
| 2026-04-28 11:57 | 4.63882 | 73.34270 | 17087 ft | 422 kts | 320° |
| 2026-04-28 11:57 | 4.66117 | 73.32330 | 17761 ft | 427 kts | 320° |
| 2026-04-28 11:57 | 4.68378 | 73.30367 | 18364 ft | 432 kts | 320° |
| 2026-04-28 11:57 | 4.70657 | 73.28389 | 18960 ft | 435 kts | 320° |
| 2026-04-28 11:58 | 4.72953 | 73.26394 | 19536 ft | 439 kts | 320° |
| 2026-04-28 11:58 | 4.75267 | 73.24383 | 20107 ft | 442 kts | 320° |
| 2026-04-28 11:58 | 4.77603 | 73.22355 | 20653 ft | 446 kts | 320° |
| 2026-04-28 11:58 | 4.79955 | 73.20311 | 21208 ft | 449 kts | 320° |
| 2026-04-28 11:59 | 4.82324 | 73.18253 | 21749 ft | 453 kts | 320° |
| 2026-04-28 11:59 | 4.84713 | 73.16177 | 22279 ft | 456 kts | 320° |
| 2026-04-28 11:59 | 4.87118 | 73.14087 | 22789 ft | 459 kts | 321° |
| 2026-04-28 11:59 | 4.89540 | 73.11981 | 23290 ft | 462 kts | 321° |
| 2026-04-28 12:00 | 4.91946 | 73.09890 | 23697 ft | 466 kts | 321° |
| 2026-04-28 12:00 | 4.94399 | 73.07757 | 24090 ft | 469 kts | 320° |
| 2026-04-28 12:00 | 4.96872 | 73.05607 | 24472 ft | 472 kts | 320° |
| 2026-04-28 12:00 | 4.99357 | 73.03446 | 24859 ft | 475 kts | 320° |
| 2026-04-28 12:01 | 5.01859 | 73.01270 | 25248 ft | 477 kts | 320° |
| 2026-04-28 12:01 | 5.04381 | 72.99077 | 25628 ft | 480 kts | 320° |
| 2026-04-28 12:01 | 5.06911 | 72.96877 | 25985 ft | 483 kts | 320° |
| 2026-04-28 12:01 | 5.09459 | 72.94660 | 26362 ft | 486 kts | 320° |
| 2026-04-28 12:02 | 5.12028 | 72.92425 | 26676 ft | 491 kts | 320° |
| 2026-04-28 12:02 | 5.14610 | 72.90179 | 27040 ft | 493 kts | 320° |
| 2026-04-28 12:02 | 5.17209 | 72.87917 | 27392 ft | 496 kts | 320° |
| 2026-04-28 12:02 | 5.19824 | 72.85641 | 27741 ft | 499 kts | 320° |
| 2026-04-28 12:03 | 5.22453 | 72.83352 | 28093 ft | 502 kts | 320° |
| 2026-04-28 12:03 | 5.25096 | 72.81052 | 28427 ft | 504 kts | 319° |
| 2026-04-28 12:03 | 5.27754 | 72.78738 | 28773 ft | 507 kts | 319° |
| 2026-04-28 12:03 | 5.30426 | 72.76412 | 29093 ft | 510 kts | 319° |
| 2026-04-28 12:04 | 5.33113 | 72.74072 | 29438 ft | 512 kts | 319° |
| 2026-04-28 12:04 | 5.35809 | 72.71724 | 29749 ft | 515 kts | 319° |
| 2026-04-28 12:04 | 5.38522 | 72.69361 | 30044 ft | 518 kts | 319° |
| 2026-04-28 12:04 | 5.41248 | 72.66987 | 30323 ft | 519 kts | 319° |
| 2026-04-28 12:05 | 5.43983 | 72.64604 | 30585 ft | 521 kts | 319° |
| 2026-04-28 12:05 | 5.46722 | 72.62216 | 30888 ft | 522 kts | 319° |
| 2026-04-28 12:05 | 5.49469 | 72.59823 | 31168 ft | 524 kts | 319° |
| 2026-04-28 12:05 | 5.52221 | 72.57425 | 31487 ft | 524 kts | 319° |
| 2026-04-28 12:06 | 5.54967 | 72.55031 | 31878 ft | 522 kts | 319° |
| 2026-04-28 12:06 | 5.57715 | 72.52635 | 32250 ft | 522 kts | 319° |
| 2026-04-28 12:06 | 5.60452 | 72.50249 | 32629 ft | 521 kts | 319° |
| 2026-04-28 12:06 | 5.63183 | 72.47868 | 33015 ft | 520 kts | 319° |
| 2026-04-28 12:07 | 5.65024 | 72.46262 | 33258 ft | 519 kts | 319° |
| 2026-04-28 12:07 | 5.67748 | 72.43886 | 33639 ft | 518 kts | 319° |
| 2026-04-28 12:07 | 5.70467 | 72.41514 | 33992 ft | 517 kts | 319° |
| 2026-04-28 12:07 | 5.74056 | 72.38383 | 34450 ft | 515 kts | 319° |
| 2026-04-28 12:08 | 5.75882 | 72.36790 | 34684 ft | 514 kts | 319° |
| 2026-04-28 12:08 | 5.78583 | 72.34433 | 35031 ft | 513 kts | 319° |
| 2026-04-28 12:08 | 5.81271 | 72.32087 | 35388 ft | 511 kts | 319° |
| 2026-04-28 12:08 | 5.83942 | 72.29755 | 35790 ft | 508 kts | 319° |
| 2026-04-28 12:09 | 5.89328 | 72.25054 | 35798 ft | 512 kts | 319° |
| 2026-04-28 12:09 | 5.94622 | 72.20430 | 35797 ft | 504 kts | 319° |
| 2026-04-28 12:10 | 5.99913 | 72.15809 | 35799 ft | 504 kts | 319° |
| 2026-04-28 12:10 | 6.05206 | 72.11184 | 35800 ft | 504 kts | 319° |
| 2026-04-28 12:11 | 6.10468 | 72.06586 | 35798 ft | 504 kts | 319° |
| 2026-04-28 12:11 | 6.15758 | 72.01961 | 35793 ft | 504 kts | 319° |
| 2026-04-28 12:12 | 6.21047 | 71.97337 | 35800 ft | 504 kts | 319° |
| 2026-04-28 12:12 | 6.26343 | 71.92705 | 35802 ft | 504 kts | 319° |
| 2026-04-28 12:13 | 6.31641 | 71.88070 | 35806 ft | 504 kts | 318° |
| 2026-04-28 12:13 | 6.36928 | 71.83448 | 35806 ft | 503 kts | 320° |
| 2026-04-28 12:14 | 6.43134 | 71.78577 | 35809 ft | 504 kts | 321° |
| 2026-04-28 12:14 | 6.65249 | 71.61250 | 35812 ft | 503 kts | 321° |
| 2026-04-28 12:15 | 6.87364 | 71.43905 | 35809 ft | 505 kts | 321° |
| 2026-04-28 12:15 | 7.09487 | 71.26536 | 35809 ft | 504 kts | 321° |
| 2026-04-28 12:16 | 7.31575 | 71.09170 | 35806 ft | 503 kts | 321° |
| 2026-04-28 12:16 | 7.53519 | 70.91895 | 35814 ft | 504 kts | 321° |
| 2026-04-28 12:17 | 7.75633 | 70.74442 | 35816 ft | 505 kts | 321° |
| 2026-04-28 12:17 | 7.97767 | 70.56950 | 35812 ft | 504 kts | 321° |
| 2026-04-28 12:18 | 8.19858 | 70.39468 | 35812 ft | 504 kts | 321° |
| 2026-04-28 12:18 | 8.41767 | 70.22105 | 35810 ft | 503 kts | 321° |
| 2026-04-28 12:19 | 8.63872 | 70.04560 | 35811 ft | 508 kts | 321° |
| 2026-04-28 12:19 | 8.86060 | 69.86922 | 35812 ft | 506 kts | 321° |
| 2026-04-28 12:20 | 9.08179 | 69.69311 | 35809 ft | 506 kts | 321° |
| 2026-04-28 12:20 | 9.30292 | 69.51677 | 35814 ft | 505 kts | 321° |
| 2026-04-28 12:21 | 9.52395 | 69.34021 | 35814 ft | 506 kts | 321° |
| 2026-04-28 12:21 | 9.74482 | 69.16349 | 35809 ft | 505 kts | 321° |
| 2026-04-28 12:22 | 9.96562 | 68.98633 | 35812 ft | 506 kts | 321° |
| 2026-04-28 12:22 | 10.18639 | 68.80889 | 35810 ft | 504 kts | 321° |
| 2026-04-28 12:23 | 10.40549 | 68.63247 | 35815 ft | 502 kts | 320° |
| 2026-04-28 12:23 | 10.62299 | 68.45702 | 35808 ft | 497 kts | 320° |
| 2026-04-28 12:24 | 10.84000 | 68.28164 | 35810 ft | 498 kts | 320° |
| 2026-04-28 12:24 | 11.05678 | 68.10610 | 35812 ft | 498 kts | 321° |
| 2026-04-28 12:25 | 11.27379 | 67.93004 | 35818 ft | 498 kts | 320° |
| 2026-04-28 12:25 | 11.49089 | 67.75356 | 35824 ft | 499 kts | 320° |
| 2026-04-28 12:26 | 11.70795 | 67.57675 | 35816 ft | 498 kts | 320° |
| 2026-04-28 12:26 | 11.92443 | 67.40004 | 35821 ft | 499 kts | 320° |
| 2026-04-28 12:27 | 12.14099 | 67.22295 | 35825 ft | 498 kts | 320° |
| 2026-04-28 12:27 | 12.35775 | 67.04533 | 35824 ft | 499 kts | 320° |
| 2026-04-28 12:28 | 12.57402 | 66.86772 | 35823 ft | 500 kts | 320° |
| 2026-04-28 12:28 | 12.79217 | 66.68818 | 35821 ft | 502 kts | 319° |
| 2026-04-28 12:29 | 13.11815 | 66.41909 | 35820 ft | 499 kts | 318° |
| 2026-04-28 12:30 | 13.33412 | 66.24030 | 35825 ft | 499 kts | 318° |
| 2026-04-28 12:30 | 13.54926 | 66.06178 | 35825 ft | 496 kts | 318° |
| 2026-04-28 12:31 | 13.76275 | 65.88420 | 35823 ft | 496 kts | 318° |
| 2026-04-28 12:31 | 13.97714 | 65.70543 | 35824 ft | 495 kts | 318° |
| 2026-04-28 12:32 | 14.19202 | 65.52582 | 35822 ft | 496 kts | 318° |
| 2026-04-28 12:32 | 14.40627 | 65.34628 | 35818 ft | 495 kts | 318° |
| 2026-04-28 12:33 | 14.61966 | 65.16700 | 35820 ft | 493 kts | 318° |
| 2026-04-28 12:33 | 14.83187 | 64.98814 | 35822 ft | 492 kts | 318° |
| 2026-04-28 12:34 | 15.04409 | 64.80881 | 35826 ft | 492 kts | 317° |
| 2026-04-28 12:34 | 15.25600 | 64.62926 | 35824 ft | 491 kts | 317° |
| 2026-04-28 12:35 | 15.46612 | 64.45075 | 35825 ft | 491 kts | 317° |
| 2026-04-28 12:35 | 15.67675 | 64.27133 | 35828 ft | 490 kts | 317° |
| 2026-04-28 12:36 | 15.88688 | 64.09183 | 35825 ft | 488 kts | 317° |
| 2026-04-28 12:36 | 16.09649 | 63.91229 | 35828 ft | 486 kts | 317° |
| 2026-04-28 12:37 | 16.30531 | 63.73291 | 35823 ft | 486 kts | 317° |
| 2026-04-28 12:37 | 16.51415 | 63.55300 | 35818 ft | 485 kts | 317° |
| 2026-04-28 12:38 | 16.72249 | 63.37300 | 35822 ft | 488 kts | 317° |
| 2026-04-28 12:38 | 16.93152 | 63.19188 | 35824 ft | 488 kts | 317° |
| 2026-04-28 12:39 | 17.13826 | 63.00749 | 35821 ft | 489 kts | 316° |
| 2026-04-28 12:39 | 17.34319 | 62.82089 | 35813 ft | 488 kts | 316° |
| 2026-04-28 12:40 | 17.54797 | 62.63398 | 35818 ft | 487 kts | 316° |
| 2026-04-28 12:40 | 17.75237 | 62.44682 | 35814 ft | 489 kts | 316° |
| 2026-04-28 12:41 | 17.95732 | 62.25857 | 35815 ft | 489 kts | 316° |
| 2026-04-28 12:41 | 18.16264 | 62.06938 | 35805 ft | 491 kts | 316° |
| 2026-04-28 12:42 | 18.36791 | 61.87961 | 35796 ft | 491 kts | 317° |
| 2026-04-28 12:42 | 18.57336 | 61.68906 | 35792 ft | 491 kts | 317° |
| 2026-04-28 12:43 | 18.77850 | 61.49815 | 35788 ft | 490 kts | 317° |
| 2026-04-28 12:43 | 18.98243 | 61.30772 | 35782 ft | 490 kts | 317° |
| 2026-04-28 12:44 | 19.15177 | 61.14911 | 35781 ft | 488 kts | 317° |
| 2026-04-28 12:44 | 19.35499 | 60.95816 | 35773 ft | 488 kts | 317° |
| 2026-04-28 12:45 | 19.59065 | 60.73589 | 35770 ft | 488 kts | 317° |
| 2026-04-28 12:45 | 19.76117 | 60.57450 | 35770 ft | 490 kts | 317° |
| 2026-04-28 12:46 | 19.96434 | 60.38157 | 35760 ft | 490 kts | 317° |
| 2026-04-28 12:46 | 20.06803 | 60.28754 | 35784 ft | 491 kts | 328° |
| 2026-04-28 12:46 | 20.18577 | 60.21371 | 35761 ft | 491 kts | 327° |
| 2026-04-28 12:47 | 20.42075 | 60.06463 | 35754 ft | 492 kts | 327° |
| 2026-04-28 12:47 | 20.65441 | 59.91560 | 35747 ft | 491 kts | 327° |
| 2026-04-28 12:48 | 20.88917 | 59.76532 | 35746 ft | 490 kts | 327° |
| 2026-04-28 12:48 | 20.99683 | 59.67881 | 35746 ft | 486 kts | 304° |
| 2026-04-28 12:48 | 21.04632 | 59.54540 | 35738 ft | 484 kts | 287° |
| 2026-04-28 12:49 | 21.12724 | 59.27047 | 35737 ft | 483 kts | 287° |
| 2026-04-28 12:49 | 21.20730 | 58.99476 | 35727 ft | 485 kts | 287° |
| 2026-04-28 12:50 | 21.26642 | 58.71586 | 35732 ft | 483 kts | 269° |
| 2026-04-28 12:50 | 21.26898 | 58.42813 | 35723 ft | 483 kts | 271° |
| 2026-04-28 12:51 | 21.27123 | 58.13999 | 35721 ft | 483 kts | 271° |
| 2026-04-28 12:51 | 21.27303 | 57.85267 | 35733 ft | 484 kts | 270° |
| 2026-04-28 12:52 | 21.27436 | 57.56409 | 35735 ft | 484 kts | 271° |
| 2026-04-28 12:52 | 21.27520 | 57.27408 | 35730 ft | 483 kts | 270° |
| 2026-04-28 12:53 | 21.27555 | 56.98761 | 35749 ft | 484 kts | 270° |
| 2026-04-28 12:53 | 21.27530 | 56.69864 | 35745 ft | 484 kts | 270° |
| 2026-04-28 12:54 | 21.27453 | 56.40990 | 35734 ft | 484 kts | 270° |
| 2026-04-28 12:54 | 21.27331 | 56.12137 | 35730 ft | 484 kts | 270° |
| 2026-04-28 12:55 | 21.27140 | 55.83252 | 35727 ft | 484 kts | 270° |
| 2026-04-28 12:55 | 21.26897 | 55.54357 | 35734 ft | 484 kts | 270° |
| 2026-04-28 12:55 | 21.27079 | 55.39919 | 35756 ft | 483 kts | 282° |
| 2026-04-28 12:56 | 21.29661 | 55.25759 | 35726 ft | 484 kts | 281° |
| 2026-04-28 12:56 | 21.34715 | 54.97277 | 35708 ft | 485 kts | 281° |
| 2026-04-28 12:57 | 21.39691 | 54.68830 | 35703 ft | 485 kts | 281° |
| 2026-04-28 12:57 | 21.44604 | 54.40447 | 35701 ft | 484 kts | 281° |
| 2026-04-28 12:58 | 21.49479 | 54.11988 | 35709 ft | 484 kts | 281° |
| 2026-04-28 12:58 | 21.54278 | 53.83678 | 35704 ft | 481 kts | 281° |
| 2026-04-28 12:59 | 21.59011 | 53.55453 | 35704 ft | 480 kts | 280° |
| 2026-04-28 12:59 | 21.63690 | 53.27257 | 35714 ft | 477 kts | 280° |
| 2026-04-28 13:00 | 21.68310 | 52.99105 | 35718 ft | 478 kts | 280° |
| 2026-04-28 13:00 | 21.72875 | 52.70983 | 35712 ft | 475 kts | 280° |
| 2026-04-28 13:01 | 21.77374 | 52.42959 | 35712 ft | 476 kts | 280° |
| 2026-04-28 13:01 | 21.81836 | 52.14863 | 35710 ft | 476 kts | 279° |
| 2026-04-28 13:02 | 21.86230 | 51.86870 | 35706 ft | 474 kts | 279° |
| 2026-04-28 13:02 | 21.90543 | 51.59075 | 35706 ft | 474 kts | 279° |
| 2026-04-28 13:03 | 21.94826 | 51.31161 | 35719 ft | 472 kts | 279° |
| 2026-04-28 13:03 | 21.99059 | 51.03246 | 35720 ft | 472 kts | 279° |
| 2026-04-28 13:04 | 22.03235 | 50.75381 | 35717 ft | 470 kts | 279° |
| 2026-04-28 13:04 | 22.07363 | 50.47504 | 35720 ft | 472 kts | 278° |
| 2026-04-28 13:05 | 22.11444 | 50.19607 | 35716 ft | 469 kts | 278° |
| 2026-04-28 13:05 | 22.15466 | 49.91776 | 35719 ft | 470 kts | 278° |
| 2026-04-28 13:06 | 22.19436 | 49.63964 | 35714 ft | 467 kts | 278° |
| 2026-04-28 13:06 | 22.23343 | 49.36252 | 35716 ft | 466 kts | 278° |
| 2026-04-28 13:07 | 22.27197 | 49.08566 | 35722 ft | 466 kts | 278° |
| 2026-04-28 13:07 | 22.30998 | 48.80905 | 35713 ft | 466 kts | 278° |
| 2026-04-28 13:08 | 22.34748 | 48.53269 | 35713 ft | 464 kts | 277° |
| 2026-04-28 13:08 | 22.38426 | 48.25801 | 35723 ft | 463 kts | 277° |
| 2026-04-28 13:09 | 22.42069 | 47.98230 | 35722 ft | 463 kts | 277° |
| 2026-04-28 13:09 | 22.45667 | 47.70630 | 35719 ft | 463 kts | 277° |
| 2026-04-28 13:10 | 22.49205 | 47.43124 | 35723 ft | 461 kts | 277° |
| 2026-04-28 13:10 | 22.55675 | 47.16305 | 35743 ft | 464 kts | 288° |
| 2026-04-28 13:11 | 22.64740 | 46.90246 | 35766 ft | 462 kts | 288° |
| 2026-04-28 13:11 | 22.71335 | 46.71229 | 35772 ft | 460 kts | 288° |
| 2026-04-28 13:12 | 22.73580 | 46.64738 | 36143 ft | 458 kts | 288° |
| 2026-04-28 13:12 | 22.74697 | 46.61509 | 36510 ft | 457 kts | 288° |
| 2026-04-28 13:12 | 22.75800 | 46.58312 | 36797 ft | 458 kts | 288° |
| 2026-04-28 13:12 | 22.76914 | 46.55081 | 37095 ft | 458 kts | 288° |
| 2026-04-28 13:13 | 22.78019 | 46.51875 | 37390 ft | 459 kts | 288° |
| 2026-04-28 13:13 | 22.79136 | 46.48635 | 37691 ft | 459 kts | 288° |
| 2026-04-28 13:13 | 22.80252 | 46.45393 | 38000 ft | 459 kts | 287° |
| 2026-04-28 13:13 | 22.81363 | 46.42157 | 38366 ft | 457 kts | 285° |
| 2026-04-28 13:14 | 22.82195 | 46.38845 | 38616 ft | 454 kts | 277° |
| 2026-04-28 13:14 | 22.82574 | 46.35459 | 38799 ft | 452 kts | 272° |
| 2026-04-28 13:14 | 22.82831 | 46.32058 | 39019 ft | 453 kts | 272° |
| 2026-04-28 13:14 | 22.83086 | 46.28659 | 39275 ft | 452 kts | 272° |
| 2026-04-28 13:15 | 22.83335 | 46.25257 | 39520 ft | 452 kts | 272° |
| 2026-04-28 13:15 | 22.83582 | 46.21858 | 39760 ft | 452 kts | 272° |
| 2026-04-28 13:15 | 22.83833 | 46.18446 | 39788 ft | 456 kts | 272° |
| 2026-04-28 13:16 | 22.84336 | 46.11588 | 39791 ft | 455 kts | 272° |
| 2026-04-28 13:16 | 22.84830 | 46.04768 | 39790 ft | 453 kts | 272° |
| 2026-04-28 13:17 | 22.85321 | 45.97969 | 39791 ft | 452 kts | 272° |
| 2026-04-28 13:17 | 22.86011 | 45.88346 | 39806 ft | 449 kts | 272° |
| 2026-04-28 13:18 | 22.87914 | 45.61348 | 39813 ft | 450 kts | 272° |
| 2026-04-28 13:18 | 22.89768 | 45.34407 | 39832 ft | 449 kts | 272° |
| 2026-04-28 13:19 | 22.91571 | 45.07522 | 39837 ft | 446 kts | 271° |
| 2026-04-28 13:19 | 22.93326 | 44.80641 | 39847 ft | 447 kts | 271° |
| 2026-04-28 13:20 | 22.98215 | 44.54173 | 39862 ft | 450 kts | 284° |
| 2026-04-28 13:20 | 23.06109 | 44.28406 | 39868 ft | 448 kts | 284° |
| 2026-04-28 13:21 | 23.13967 | 44.02692 | 39876 ft | 448 kts | 284° |
| 2026-04-28 13:21 | 23.21768 | 43.77007 | 39897 ft | 447 kts | 284° |
| 2026-04-28 13:22 | 23.29502 | 43.51379 | 39929 ft | 444 kts | 284° |
| 2026-04-28 13:22 | 23.37153 | 43.25862 | 39958 ft | 443 kts | 284° |
| 2026-04-28 13:23 | 23.44764 | 43.00278 | 39969 ft | 444 kts | 283° |
| 2026-04-28 13:23 | 23.52333 | 42.74637 | 39960 ft | 444 kts | 283° |
| 2026-04-28 13:24 | 23.59817 | 42.49180 | 39947 ft | 443 kts | 283° |
| 2026-04-28 13:24 | 23.67297 | 42.23549 | 39938 ft | 443 kts | 283° |
| 2026-04-28 13:25 | 23.74751 | 41.97762 | 39943 ft | 442 kts | 283° |
| 2026-04-28 13:25 | 23.80887 | 41.76500 | 39935 ft | 441 kts | 282° |
| 2026-04-28 13:26 | 23.88199 | 41.50952 | 39928 ft | 441 kts | 282° |
| 2026-04-28 13:26 | 23.95480 | 41.25278 | 39917 ft | 443 kts | 282° |
| 2026-04-28 13:27 | 24.02746 | 40.99527 | 39921 ft | 442 kts | 282° |
| 2026-04-28 13:27 | 24.09932 | 40.73884 | 39918 ft | 439 kts | 282° |
| 2026-04-28 13:28 | 24.17554 | 40.48511 | 39905 ft | 445 kts | 291° |
| 2026-04-28 13:28 | 24.29070 | 40.24569 | 39929 ft | 443 kts | 291° |
| 2026-04-28 13:29 | 24.40457 | 40.00682 | 39916 ft | 441 kts | 291° |
| 2026-04-28 13:29 | 24.51749 | 39.76873 | 39892 ft | 439 kts | 291° |
| 2026-04-28 13:29 | 24.59123 | 39.66894 | 39896 ft | 464 kts | 317° |
| 2026-04-28 13:30 | 24.61776 | 39.64909 | 39932 ft | 467 kts | 317° |
| 2026-04-28 13:30 | 24.67026 | 39.60757 | 39941 ft | 462 kts | 315° |
| 2026-04-28 13:31 | 24.87208 | 39.44589 | 39932 ft | 462 kts | 315° |
| 2026-04-28 13:31 | 25.07921 | 39.27938 | 39929 ft | 460 kts | 315° |
| 2026-04-28 13:32 | 25.26391 | 39.09390 | 39942 ft | 436 kts | 294° |
| 2026-04-28 13:32 | 25.39581 | 38.86733 | 39906 ft | 438 kts | 296° |
| 2026-04-28 13:33 | 25.52743 | 38.64097 | 39892 ft | 436 kts | 295° |
| 2026-04-28 13:33 | 25.65801 | 38.41539 | 39883 ft | 434 kts | 295° |
| 2026-04-28 13:34 | 25.78794 | 38.18986 | 39882 ft | 432 kts | 295° |
| 2026-04-28 13:34 | 25.91686 | 37.96497 | 39886 ft | 434 kts | 295° |
| 2026-04-28 13:35 | 26.01612 | 37.72911 | 39913 ft | 415 kts | 273° |
| 2026-04-28 13:35 | 26.05037 | 37.47528 | 39917 ft | 417 kts | 275° |
| 2026-04-28 13:36 | 26.08416 | 37.22150 | 39898 ft | 415 kts | 275° |
| 2026-04-28 13:36 | 26.11750 | 36.96797 | 39878 ft | 415 kts | 275° |
| 2026-04-28 13:37 | 26.15015 | 36.71622 | 39879 ft | 414 kts | 275° |
| 2026-04-28 13:37 | 26.20338 | 36.46785 | 39908 ft | 429 kts | 298° |
| 2026-04-28 13:38 | 26.28471 | 36.36737 | 39938 ft | 440 kts | 305° |
| 2026-04-28 13:38 | 26.36965 | 36.26901 | 39893 ft | 439 kts | 305° |
| 2026-04-28 13:38 | 26.53893 | 36.07291 | 39889 ft | 438 kts | 305° |
| 2026-04-28 13:39 | 26.70862 | 35.87560 | 39902 ft | 436 kts | 305° |
| 2026-04-28 13:39 | 26.87528 | 35.68092 | 39895 ft | 435 kts | 305° |
| 2026-04-28 13:40 | 27.04244 | 35.48477 | 39908 ft | 436 kts | 305° |
| 2026-04-28 13:40 | 27.20894 | 35.28852 | 39912 ft | 434 kts | 305° |
| 2026-04-28 13:41 | 27.37492 | 35.09197 | 39910 ft | 433 kts | 305° |
| 2026-04-28 13:41 | 27.54320 | 34.89604 | 39914 ft | 438 kts | 309° |
| 2026-04-28 13:42 | 27.72085 | 34.70814 | 39946 ft | 438 kts | 308° |
| 2026-04-28 13:42 | 27.89822 | 34.51976 | 39921 ft | 436 kts | 308° |
| 2026-04-28 13:43 | 28.06405 | 34.32240 | 39920 ft | 429 kts | 302° |
| 2026-04-28 13:43 | 28.21552 | 34.11209 | 39976 ft | 431 kts | 302° |
| 2026-04-28 13:44 | 28.28538 | 34.01484 | 39993 ft | 433 kts | 302° |
| 2026-04-28 13:44 | 28.32351 | 33.96164 | 39988 ft | 435 kts | 302° |
| 2026-04-28 13:45 | 28.36171 | 33.90835 | 39996 ft | 435 kts | 302° |
| 2026-04-28 13:45 | 28.39979 | 33.85514 | 39982 ft | 433 kts | 302° |
| 2026-04-28 13:46 | 28.44019 | 33.79857 | 39979 ft | 433 kts | 302° |
| 2026-04-28 13:46 | 28.47818 | 33.74533 | 39959 ft | 435 kts | 302° |
| 2026-04-28 13:47 | 28.51637 | 33.69179 | 39968 ft | 434 kts | 302° |
| 2026-04-28 13:47 | 28.55427 | 33.63855 | 39965 ft | 432 kts | 302° |
| 2026-04-28 13:48 | 28.59213 | 33.58550 | 39970 ft | 431 kts | 302° |
| 2026-04-28 13:48 | 28.62990 | 33.53243 | 39968 ft | 431 kts | 302° |
| 2026-04-28 13:49 | 28.66756 | 33.47936 | 39968 ft | 431 kts | 302° |
| 2026-04-28 13:49 | 28.70518 | 33.42626 | 39957 ft | 431 kts | 302° |
| 2026-04-28 13:50 | 28.74283 | 33.37307 | 39958 ft | 431 kts | 302° |
| 2026-04-28 13:50 | 28.78045 | 33.31983 | 39958 ft | 431 kts | 302° |
| 2026-04-28 13:51 | 28.81809 | 33.26651 | 39963 ft | 432 kts | 302° |
| 2026-04-28 13:51 | 28.85583 | 33.21297 | 39962 ft | 433 kts | 302° |
| 2026-04-28 13:52 | 28.89364 | 33.15928 | 39958 ft | 433 kts | 302° |
| 2026-04-28 13:52 | 28.93125 | 33.10580 | 39942 ft | 431 kts | 302° |
| 2026-04-28 13:53 | 28.96870 | 33.05246 | 39939 ft | 429 kts | 302° |
| 2026-04-28 13:53 | 29.00605 | 32.99921 | 39938 ft | 430 kts | 302° |
| 2026-04-28 13:54 | 29.04319 | 32.94617 | 39941 ft | 430 kts | 302° |
| 2026-04-28 13:54 | 29.08056 | 32.89276 | 39951 ft | 430 kts | 302° |
| 2026-04-28 13:55 | 29.11798 | 32.83922 | 39968 ft | 429 kts | 302° |
| 2026-04-28 13:55 | 29.15517 | 32.78590 | 39970 ft | 427 kts | 302° |
| 2026-04-28 13:56 | 29.19230 | 32.73262 | 39967 ft | 428 kts | 302° |
| 2026-04-28 13:56 | 29.22944 | 32.67925 | 39983 ft | 429 kts | 302° |
| 2026-04-28 13:57 | 29.26667 | 32.62569 | 39984 ft | 431 kts | 302° |
| 2026-04-28 13:57 | 29.30386 | 32.57198 | 39991 ft | 429 kts | 302° |
| 2026-04-28 13:58 | 29.34039 | 32.51860 | 40004 ft | 428 kts | 302° |
| 2026-04-28 13:58 | 29.37720 | 32.46504 | 40004 ft | 428 kts | 302° |
| 2026-04-28 13:59 | 29.41399 | 32.41131 | 40007 ft | 428 kts | 302° |
| 2026-04-28 13:59 | 29.45082 | 32.35751 | 40018 ft | 429 kts | 302° |
| 2026-04-28 14:00 | 29.48766 | 32.30361 | 40010 ft | 427 kts | 302° |
| 2026-04-28 14:00 | 29.52424 | 32.25001 | 40016 ft | 426 kts | 302° |
| 2026-04-28 14:01 | 29.56068 | 32.19655 | 40018 ft | 426 kts | 302° |
| 2026-04-28 14:01 | 29.59730 | 32.14274 | 40032 ft | 428 kts | 302° |
| 2026-04-28 14:02 | 29.63404 | 32.08872 | 40033 ft | 427 kts | 302° |
| 2026-04-28 14:02 | 29.67063 | 32.03481 | 40034 ft | 427 kts | 302° |
| 2026-04-28 14:03 | 29.70694 | 31.98127 | 40034 ft | 427 kts | 302° |
| 2026-04-28 14:03 | 29.74343 | 31.92737 | 40039 ft | 427 kts | 302° |
| 2026-04-28 14:04 | 29.77997 | 31.87332 | 40026 ft | 429 kts | 302° |
| 2026-04-28 14:04 | 29.80971 | 31.82721 | 40030 ft | 428 kts | 301° |
| 2026-04-28 14:05 | 29.84520 | 31.77208 | 40021 ft | 428 kts | 301° |
| 2026-04-28 14:05 | 29.88031 | 31.71726 | 40013 ft | 427 kts | 301° |
| 2026-04-28 14:06 | 29.91550 | 31.66232 | 40010 ft | 426 kts | 301° |
| 2026-04-28 14:06 | 29.95099 | 31.60746 | 40004 ft | 427 kts | 301° |
| 2026-04-28 14:07 | 29.98656 | 31.55248 | 39986 ft | 428 kts | 301° |
| 2026-04-28 14:07 | 30.02215 | 31.49731 | 39963 ft | 429 kts | 301° |
| 2026-04-28 14:08 | 30.05775 | 31.44212 | 39967 ft | 429 kts | 301° |
| 2026-04-28 14:08 | 30.09435 | 31.38764 | 39986 ft | 432 kts | 307° |
| 2026-04-28 14:09 | 30.13818 | 31.33933 | 39961 ft | 436 kts | 310° |
| 2026-04-28 14:09 | 30.18270 | 31.29142 | 39973 ft | 439 kts | 310° |
| 2026-04-28 14:10 | 30.22757 | 31.24329 | 39992 ft | 439 kts | 310° |
| 2026-04-28 14:10 | 30.27227 | 31.19513 | 39986 ft | 439 kts | 310° |
| 2026-04-28 14:11 | 30.31679 | 31.14719 | 39990 ft | 440 kts | 310° |
| 2026-04-28 14:11 | 30.36156 | 31.09887 | 39992 ft | 440 kts | 310° |
| 2026-04-28 14:12 | 30.40663 | 31.05018 | 39996 ft | 440 kts | 310° |
| 2026-04-28 14:12 | 30.45136 | 31.00179 | 39991 ft | 439 kts | 310° |
| 2026-04-28 14:13 | 30.49589 | 30.95355 | 40040 ft | 438 kts | 311° |
| 2026-04-28 14:13 | 30.54083 | 30.90479 | 39990 ft | 444 kts | 311° |
| 2026-04-28 14:14 | 30.58597 | 30.85580 | 39987 ft | 444 kts | 311° |
| 2026-04-28 14:14 | 30.63101 | 30.80680 | 39987 ft | 444 kts | 311° |
| 2026-04-28 14:15 | 30.67604 | 30.75776 | 39986 ft | 443 kts | 311° |
| 2026-04-28 14:15 | 30.72099 | 30.70874 | 39991 ft | 443 kts | 311° |
| 2026-04-28 14:16 | 30.76587 | 30.65974 | 39991 ft | 443 kts | 311° |
| 2026-04-28 14:16 | 30.81079 | 30.61063 | 39996 ft | 442 kts | 311° |
| 2026-04-28 14:17 | 30.85569 | 30.56144 | 40008 ft | 445 kts | 311° |
| 2026-04-28 14:17 | 30.90082 | 30.51199 | 40015 ft | 446 kts | 311° |
| 2026-04-28 14:18 | 30.94597 | 30.46241 | 40014 ft | 446 kts | 311° |
| 2026-04-28 14:18 | 30.99085 | 30.41308 | 40020 ft | 446 kts | 311° |
| 2026-04-28 14:19 | 31.03593 | 30.36345 | 40025 ft | 445 kts | 311° |
| 2026-04-28 14:19 | 31.07741 | 30.31089 | 40031 ft | 436 kts | 300° |
| 2026-04-28 14:20 | 31.10590 | 30.24900 | 40039 ft | 431 kts | 288° |
| 2026-04-28 14:20 | 31.12453 | 30.18254 | 40034 ft | 432 kts | 286° |
| 2026-04-28 14:21 | 31.14276 | 30.11568 | 40038 ft | 433 kts | 286° |
| 2026-04-28 14:21 | 31.16112 | 30.04852 | 40042 ft | 434 kts | 288° |
| 2026-04-28 14:22 | 31.18856 | 29.98564 | 40032 ft | 438 kts | 301° |
| 2026-04-28 14:22 | 31.22912 | 29.93261 | 40036 ft | 446 kts | 314° |
| 2026-04-28 14:23 | 31.28151 | 29.89231 | 40037 ft | 457 kts | 325° |
| 2026-04-28 14:23 | 31.33755 | 29.85707 | 40033 ft | 458 kts | 325° |
| 2026-04-28 14:24 | 31.39382 | 29.82194 | 40050 ft | 458 kts | 325° |
| 2026-04-28 14:24 | 31.44994 | 29.78671 | 40036 ft | 457 kts | 325° |
| 2026-04-28 14:25 | 31.50586 | 29.75163 | 40034 ft | 455 kts | 325° |
| 2026-04-28 14:25 | 31.56165 | 29.71653 | 40033 ft | 456 kts | 326° |
| 2026-04-28 14:26 | 31.61775 | 29.68122 | 40038 ft | 459 kts | 326° |
| 2026-04-28 14:26 | 31.67405 | 29.64574 | 40035 ft | 459 kts | 326° |
| 2026-04-28 14:27 | 31.73018 | 29.61030 | 40033 ft | 457 kts | 326° |
| 2026-04-28 14:27 | 31.78624 | 29.57487 | 40027 ft | 456 kts | 326° |
| 2026-04-28 14:28 | 31.84208 | 29.53950 | 40023 ft | 457 kts | 326° |
| 2026-04-28 14:28 | 31.89802 | 29.50406 | 40028 ft | 456 kts | 326° |
| 2026-04-28 14:29 | 31.95387 | 29.46861 | 40027 ft | 456 kts | 326° |
| 2026-04-28 14:29 | 32.00975 | 29.43308 | 40025 ft | 455 kts | 326° |
| 2026-04-28 14:30 | 32.06505 | 29.39788 | 40022 ft | 454 kts | 326° |
| 2026-04-28 14:30 | 32.12076 | 29.36236 | 40021 ft | 457 kts | 326° |
| 2026-04-28 14:31 | 32.17677 | 29.32662 | 40029 ft | 458 kts | 326° |
| 2026-04-28 14:31 | 32.23292 | 29.29072 | 40029 ft | 459 kts | 326° |
| 2026-04-28 14:32 | 32.28907 | 29.25472 | 40030 ft | 459 kts | 326° |
| 2026-04-28 14:32 | 32.34536 | 29.21861 | 40033 ft | 458 kts | 326° |
| 2026-04-28 14:33 | 32.40124 | 29.18271 | 40027 ft | 456 kts | 326° |
| 2026-04-28 14:33 | 32.45691 | 29.14687 | 40022 ft | 456 kts | 326° |
| 2026-04-28 14:34 | 32.54064 | 29.09290 | 40020 ft | 457 kts | 326° |
| 2026-04-28 14:35 | 32.59669 | 29.05670 | 40027 ft | 458 kts | 326° |
| 2026-04-28 14:35 | 32.65273 | 29.02045 | 40028 ft | 459 kts | 326° |
| 2026-04-28 14:36 | 32.70896 | 28.98402 | 40028 ft | 461 kts | 326° |
| 2026-04-28 14:36 | 32.76515 | 28.94759 | 40023 ft | 459 kts | 326° |
| 2026-04-28 14:37 | 32.82107 | 28.91126 | 40020 ft | 458 kts | 326° |
| 2026-04-28 14:37 | 32.87684 | 28.87499 | 40022 ft | 456 kts | 326° |
| 2026-04-28 14:38 | 32.93257 | 28.83867 | 40012 ft | 457 kts | 326° |
| 2026-04-28 14:38 | 32.98811 | 28.80243 | 40023 ft | 460 kts | 326° |
| 2026-04-28 14:39 | 33.04436 | 28.76569 | 40025 ft | 461 kts | 326° |
| 2026-04-28 14:39 | 33.10063 | 28.72887 | 40026 ft | 461 kts | 326° |
| 2026-04-28 14:40 | 33.15686 | 28.69203 | 40021 ft | 461 kts | 326° |
| 2026-04-28 14:40 | 33.21305 | 28.65516 | 40024 ft | 461 kts | 326° |
| 2026-04-28 14:41 | 33.26929 | 28.61819 | 40011 ft | 461 kts | 326° |
| 2026-04-28 14:41 | 33.32549 | 28.58121 | 40010 ft | 461 kts | 326° |
| 2026-04-28 14:42 | 33.38173 | 28.54414 | 40007 ft | 461 kts | 326° |
| 2026-04-28 14:42 | 33.43794 | 28.50703 | 40007 ft | 461 kts | 326° |
| 2026-04-28 14:43 | 33.48495 | 28.47595 | 40004 ft | 461 kts | 326° |
| 2026-04-28 14:43 | 33.54071 | 28.43904 | 40013 ft | 461 kts | 327° |
| 2026-04-28 14:44 | 33.59694 | 28.40177 | 40013 ft | 461 kts | 326° |
| 2026-04-28 14:44 | 33.65307 | 28.36449 | 40023 ft | 461 kts | 327° |
| 2026-04-28 14:45 | 33.70920 | 28.32718 | 40012 ft | 460 kts | 327° |
| 2026-04-28 14:45 | 33.76511 | 28.28994 | 40007 ft | 459 kts | 327° |
| 2026-04-28 14:46 | 33.81998 | 28.25075 | 40010 ft | 457 kts | 322° |
| 2026-04-28 14:46 | 33.87322 | 28.20861 | 40012 ft | 459 kts | 323° |
| 2026-04-28 14:47 | 33.92651 | 28.16620 | 40013 ft | 459 kts | 322° |
| 2026-04-28 14:47 | 33.97988 | 28.12372 | 40013 ft | 460 kts | 323° |
| 2026-04-28 14:48 | 34.03281 | 28.08152 | 40010 ft | 460 kts | 322° |
| 2026-04-28 14:48 | 34.08613 | 28.03893 | 40028 ft | 459 kts | 323° |
| 2026-04-28 14:49 | 34.13933 | 27.99638 | 40009 ft | 459 kts | 323° |
| 2026-04-28 14:49 | 34.19267 | 27.95365 | 40003 ft | 460 kts | 323° |
| 2026-04-28 14:50 | 34.24596 | 27.91090 | 40005 ft | 460 kts | 323° |
| 2026-04-28 14:50 | 34.29932 | 27.86802 | 40003 ft | 460 kts | 323° |
| 2026-04-28 14:51 | 34.35092 | 27.82649 | 40007 ft | 461 kts | 323° |
| 2026-04-28 14:51 | 34.40432 | 27.78344 | 40002 ft | 462 kts | 323° |
| 2026-04-28 14:52 | 34.45768 | 27.74038 | 40000 ft | 460 kts | 323° |
| 2026-04-28 14:52 | 34.51126 | 27.69705 | 39999 ft | 459 kts | 323° |
| 2026-04-28 14:53 | 34.56408 | 27.65428 | 39993 ft | 458 kts | 323° |
| 2026-04-28 14:53 | 34.61709 | 27.61128 | 39991 ft | 459 kts | 323° |
| 2026-04-28 14:54 | 34.67030 | 27.56805 | 40005 ft | 461 kts | 323° |
| 2026-04-28 14:54 | 34.72385 | 27.52449 | 40001 ft | 462 kts | 323° |
| 2026-04-28 14:55 | 34.77721 | 27.48100 | 40002 ft | 462 kts | 323° |
| 2026-04-28 14:55 | 34.83046 | 27.43754 | 40006 ft | 460 kts | 323° |
| 2026-04-28 14:56 | 34.88354 | 27.39416 | 39997 ft | 458 kts | 323° |
| 2026-04-28 14:56 | 34.93611 | 27.35111 | 40000 ft | 458 kts | 323° |
| 2026-04-28 14:57 | 34.98906 | 27.30768 | 39996 ft | 460 kts | 323° |
| 2026-04-28 14:57 | 35.04196 | 27.26423 | 39999 ft | 461 kts | 323° |
| 2026-04-28 14:58 | 35.09540 | 27.22027 | 40004 ft | 461 kts | 323° |
| 2026-04-28 14:58 | 35.14871 | 27.17634 | 40001 ft | 461 kts | 323° |
| 2026-04-28 14:59 | 35.20183 | 27.13251 | 39988 ft | 460 kts | 323° |
| 2026-04-28 14:59 | 35.25482 | 27.08870 | 39979 ft | 458 kts | 323° |
| 2026-04-28 15:00 | 35.30754 | 27.04504 | 39969 ft | 457 kts | 323° |
| 2026-04-28 15:00 | 35.36026 | 27.00132 | 39970 ft | 458 kts | 323° |
| 2026-04-28 15:01 | 35.41322 | 26.95733 | 39985 ft | 460 kts | 323° |
| 2026-04-28 15:01 | 35.46628 | 26.91319 | 39982 ft | 461 kts | 323° |
| 2026-04-28 15:02 | 35.51902 | 26.86924 | 39977 ft | 460 kts | 323° |
| 2026-04-28 15:02 | 35.57195 | 26.82506 | 39984 ft | 458 kts | 323° |
| 2026-04-28 15:03 | 35.62456 | 26.78108 | 39985 ft | 457 kts | 323° |
| 2026-04-28 15:03 | 35.67719 | 26.73700 | 39994 ft | 458 kts | 323° |
| 2026-04-28 15:04 | 35.73000 | 26.69271 | 39997 ft | 460 kts | 323° |